sensor_id;sensor_type;location;lat;lon;timestamp;P1;durP1;ratioP1;P2;durP2;ratioP2
12871;SDS011;6504;53.766;9.626;2023-07-30T00:01:26;4.73;;;4.33;;
12871;SDS011;6504;53.766;9.626;2023-07-30T00:03:54;5.60;;;3.87;;
12871;SDS011;6504;53.766;9.626;2023-07-30T00:06:24;5.57;;;5.17;;
12871;SDS011;6504;53.766;9.626;2023-07-30T00:08:52;5.67;;;5.17;;
12871;SDS011;6504;53.766;9.626;2023-07-30T00:11:20;5.50;;;5.10;;
12871;SDS011;6504;53.766;9.626;2023-07-30T00:13:48;5.10;;;4.67;;
12871;SDS011;6504;53.766;9.626;2023-07-30T00:16:16;6.33;;;5.73;;
12871;SDS011;6504;53.766;9.626;2023-07-30T00:18:44;5.50;;;5.07;;
12871;SDS011;6504;53.766;9.626;2023-07-30T00:21:13;5.20;;;4.80;;
12871;SDS011;6504;53.766;9.626;2023-07-30T00:23:42;6.60;;;5.90;;
12871;SDS011;6504;53.766;9.626;2023-07-30T00:26:10;6.60;;;6.10;;
12871;SDS011;6504;53.766;9.626;2023-07-30T00:28:38;6.17;;;5.60;;
12871;SDS011;6504;53.766;9.626;2023-07-30T00:31:06;6.40;;;5.80;;
12871;SDS011;6504;53.766;9.626;2023-07-30T00:33:34;6.63;;;6.03;;
12871;SDS011;6504;53.766;9.626;2023-07-30T00:36:02;7.27;;;6.63;;
12871;SDS011;6504;53.766;9.626;2023-07-30T00:38:31;6.57;;;5.97;;
12871;SDS011;6504;53.766;9.626;2023-07-30T00:41:00;6.40;;;5.80;;
12871;SDS011;6504;53.766;9.626;2023-07-30T00:43:28;6.50;;;5.90;;
12871;SDS011;6504;53.766;9.626;2023-07-30T00:45:56;5.70;;;5.20;;
12871;SDS011;6504;53.766;9.626;2023-07-30T00:48:24;7.07;;;6.37;;
12871;SDS011;6504;53.766;9.626;2023-07-30T00:50:52;6.00;;;5.40;;
12871;SDS011;6504;53.766;9.626;2023-07-30T00:53:21;6.60;;;6.00;;
12871;SDS011;6504;53.766;9.626;2023-07-30T00:55:51;6.80;;;6.07;;
12871;SDS011;6504;53.766;9.626;2023-07-30T00:58:21;6.77;;;6.10;;
12871;SDS011;6504;53.766;9.626;2023-07-30T01:00:50;6.70;;;6.10;;
12871;SDS011;6504;53.766;9.626;2023-07-30T01:03:20;5.77;;;5.30;;
12871;SDS011;6504;53.766;9.626;2023-07-30T01:05:48;6.47;;;5.87;;
12871;SDS011;6504;53.766;9.626;2023-07-30T01:08:17;8.07;;;5.80;;
12871;SDS011;6504;53.766;9.626;2023-07-30T01:10:45;6.10;;;5.50;;
12871;SDS011;6504;53.766;9.626;2023-07-30T01:13:13;6.03;;;5.50;;
12871;SDS011;6504;53.766;9.626;2023-07-30T01:15:45;5.80;;;5.30;;
12871;SDS011;6504;53.766;9.626;2023-07-30T01:18:14;6.07;;;5.43;;
12871;SDS011;6504;53.766;9.626;2023-07-30T01:20:42;6.70;;;6.10;;
12871;SDS011;6504;53.766;9.626;2023-07-30T01:23:12;6.40;;;5.57;;
12871;SDS011;6504;53.766;9.626;2023-07-30T01:25:40;6.53;;;5.70;;
12871;SDS011;6504;53.766;9.626;2023-07-30T01:28:10;5.87;;;5.27;;
12871;SDS011;6504;53.766;9.626;2023-07-30T01:30:43;5.83;;;4.77;;
12871;SDS011;6504;53.766;9.626;2023-07-30T01:33:14;6.37;;;5.03;;
12871;SDS011;6504;53.766;9.626;2023-07-30T01:35:43;6.10;;;5.07;;
12871;SDS011;6504;53.766;9.626;2023-07-30T01:38:13;6.77;;;5.13;;
12871;SDS011;6504;53.766;9.626;2023-07-30T01:40:41;5.07;;;4.30;;
12871;SDS011;6504;53.766;9.626;2023-07-30T01:43:09;5.17;;;4.37;;
12871;SDS011;6504;53.766;9.626;2023-07-30T01:45:37;7.00;;;4.57;;
12871;SDS011;6504;53.766;9.626;2023-07-30T01:48:07;4.73;;;4.33;;
12871;SDS011;6504;53.766;9.626;2023-07-30T01:50:35;5.30;;;4.80;;
12871;SDS011;6504;53.766;9.626;2023-07-30T01:53:03;6.10;;;4.53;;
12871;SDS011;6504;53.766;9.626;2023-07-30T01:55:32;5.27;;;4.83;;
12871;SDS011;6504;53.766;9.626;2023-07-30T01:58:01;5.30;;;4.80;;
12871;SDS011;6504;53.766;9.626;2023-07-30T02:00:29;4.83;;;4.27;;
12871;SDS011;6504;53.766;9.626;2023-07-30T02:02:57;5.70;;;4.97;;
12871;SDS011;6504;53.766;9.626;2023-07-30T02:05:25;5.37;;;4.97;;
12871;SDS011;6504;53.766;9.626;2023-07-30T02:07:53;5.27;;;4.83;;
12871;SDS011;6504;53.766;9.626;2023-07-30T02:10:22;6.03;;;4.90;;
12871;SDS011;6504;53.766;9.626;2023-07-30T02:12:52;5.03;;;4.57;;
12871;SDS011;6504;53.766;9.626;2023-07-30T02:15:20;5.60;;;4.87;;
12871;SDS011;6504;53.766;9.626;2023-07-30T02:17:48;5.40;;;4.90;;
12871;SDS011;6504;53.766;9.626;2023-07-30T02:20:16;4.63;;;4.23;;
12871;SDS011;6504;53.766;9.626;2023-07-30T02:22:45;4.77;;;4.37;;
12871;SDS011;6504;53.766;9.626;2023-07-30T02:25:13;4.80;;;4.40;;
12871;SDS011;6504;53.766;9.626;2023-07-30T02:27:41;5.53;;;5.03;;
12871;SDS011;6504;53.766;9.626;2023-07-30T02:30:11;5.10;;;4.60;;
12871;SDS011;6504;53.766;9.626;2023-07-30T02:32:39;5.30;;;4.80;;
12871;SDS011;6504;53.766;9.626;2023-07-30T02:35:08;4.93;;;4.43;;
12871;SDS011;6504;53.766;9.626;2023-07-30T02:37:36;4.97;;;4.57;;
12871;SDS011;6504;53.766;9.626;2023-07-30T02:40:05;5.40;;;4.87;;
12871;SDS011;6504;53.766;9.626;2023-07-30T02:42:34;4.40;;;4.10;;
12871;SDS011;6504;53.766;9.626;2023-07-30T02:45:02;5.23;;;4.50;;
12871;SDS011;6504;53.766;9.626;2023-07-30T02:47:33;5.13;;;4.73;;
12871;SDS011;6504;53.766;9.626;2023-07-30T02:50:01;5.47;;;4.97;;
12871;SDS011;6504;53.766;9.626;2023-07-30T02:52:31;4.80;;;4.30;;
12871;SDS011;6504;53.766;9.626;2023-07-30T02:54:59;5.23;;;4.73;;
12871;SDS011;6504;53.766;9.626;2023-07-30T02:57:27;8.80;;;5.40;;
12871;SDS011;6504;53.766;9.626;2023-07-30T02:59:55;5.33;;;4.83;;
12871;SDS011;6504;53.766;9.626;2023-07-30T03:02:24;5.00;;;4.60;;
12871;SDS011;6504;53.766;9.626;2023-07-30T03:04:53;4.93;;;4.53;;
12871;SDS011;6504;53.766;9.626;2023-07-30T03:07:23;5.27;;;4.77;;
12871;SDS011;6504;53.766;9.626;2023-07-30T03:09:51;4.87;;;4.50;;
12871;SDS011;6504;53.766;9.626;2023-07-30T03:12:19;5.50;;;5.00;;
12871;SDS011;6504;53.766;9.626;2023-07-30T03:14:47;5.33;;;4.83;;
12871;SDS011;6504;53.766;9.626;2023-07-30T03:17:15;4.30;;;4.00;;
12871;SDS011;6504;53.766;9.626;2023-07-30T03:19:43;5.00;;;4.30;;
12871;SDS011;6504;53.766;9.626;2023-07-30T03:22:12;5.50;;;4.73;;
12871;SDS011;6504;53.766;9.626;2023-07-30T03:24:41;4.63;;;4.23;;
12871;SDS011;6504;53.766;9.626;2023-07-30T03:27:09;5.90;;;4.60;;
12871;SDS011;6504;53.766;9.626;2023-07-30T03:29:37;4.83;;;4.20;;
12871;SDS011;6504;53.766;9.626;2023-07-30T03:32:05;5.43;;;4.93;;
12871;SDS011;6504;53.766;9.626;2023-07-30T03:34:34;4.07;;;3.67;;
12871;SDS011;6504;53.766;9.626;2023-07-30T03:37:02;4.03;;;3.73;;
12871;SDS011;6504;53.766;9.626;2023-07-30T03:39:32;5.30;;;4.80;;
12871;SDS011;6504;53.766;9.626;2023-07-30T03:42:00;4.03;;;3.73;;
12871;SDS011;6504;53.766;9.626;2023-07-30T03:44:28;5.10;;;4.30;;
12871;SDS011;6504;53.766;9.626;2023-07-30T03:46:56;5.10;;;3.70;;
12871;SDS011;6504;53.766;9.626;2023-07-30T03:49:24;4.83;;;4.43;;
12871;SDS011;6504;53.766;9.626;2023-07-30T03:51:52;4.77;;;4.30;;
12871;SDS011;6504;53.766;9.626;2023-07-30T03:54:20;4.63;;;4.20;;
12871;SDS011;6504;53.766;9.626;2023-07-30T03:56:50;4.97;;;4.47;;
12871;SDS011;6504;53.766;9.626;2023-07-30T03:59:18;5.03;;;4.37;;
12871;SDS011;6504;53.766;9.626;2023-07-30T04:01:46;4.70;;;3.83;;
12871;SDS011;6504;53.766;9.626;2023-07-30T04:04:14;6.07;;;4.20;;
12871;SDS011;6504;53.766;9.626;2023-07-30T04:06:42;5.90;;;4.60;;
12871;SDS011;6504;53.766;9.626;2023-07-30T04:09:10;5.07;;;4.57;;
12871;SDS011;6504;53.766;9.626;2023-07-30T04:11:38;5.00;;;4.30;;
12871;SDS011;6504;53.766;9.626;2023-07-30T04:14:08;5.67;;;4.17;;
12871;SDS011;6504;53.766;9.626;2023-07-30T04:16:36;4.73;;;4.23;;
12871;SDS011;6504;53.766;9.626;2023-07-30T04:19:04;4.93;;;4.43;;
12871;SDS011;6504;53.766;9.626;2023-07-30T04:21:32;5.33;;;4.43;;
12871;SDS011;6504;53.766;9.626;2023-07-30T04:24:00;5.40;;;4.30;;
12871;SDS011;6504;53.766;9.626;2023-07-30T04:26:29;5.27;;;4.30;;
12871;SDS011;6504;53.766;9.626;2023-07-30T04:28:57;7.07;;;5.00;;
12871;SDS011;6504;53.766;9.626;2023-07-30T04:31:26;6.20;;;4.33;;
12871;SDS011;6504;53.766;9.626;2023-07-30T04:33:54;5.83;;;4.67;;
12871;SDS011;6504;53.766;9.626;2023-07-30T04:36:22;5.80;;;4.60;;
12871;SDS011;6504;53.766;9.626;2023-07-30T04:38:50;6.20;;;5.00;;
12871;SDS011;6504;53.766;9.626;2023-07-30T04:41:18;5.47;;;4.87;;
12871;SDS011;6504;53.766;9.626;2023-07-30T04:43:46;9.20;;;5.60;;
12871;SDS011;6504;53.766;9.626;2023-07-30T04:46:15;5.63;;;4.43;;
12871;SDS011;6504;53.766;9.626;2023-07-30T04:48:44;4.67;;;4.23;;
12871;SDS011;6504;53.766;9.626;2023-07-30T04:51:12;6.30;;;4.13;;
12871;SDS011;6504;53.766;9.626;2023-07-30T04:53:40;5.47;;;4.43;;
12871;SDS011;6504;53.766;9.626;2023-07-30T04:56:08;4.63;;;4.20;;
12871;SDS011;6504;53.766;9.626;2023-07-30T04:58:36;5.77;;;4.83;;
12871;SDS011;6504;53.766;9.626;2023-07-30T05:01:04;8.63;;;5.00;;
12871;SDS011;6504;53.766;9.626;2023-07-30T05:03:32;6.80;;;5.07;;
12871;SDS011;6504;53.766;9.626;2023-07-30T05:06:02;6.40;;;4.63;;
12871;SDS011;6504;53.766;9.626;2023-07-30T05:08:30;8.70;;;5.43;;
12871;SDS011;6504;53.766;9.626;2023-07-30T05:10:58;5.93;;;4.53;;
12871;SDS011;6504;53.766;9.626;2023-07-30T05:13:26;6.73;;;5.20;;
12871;SDS011;6504;53.766;9.626;2023-07-30T05:15:54;7.50;;;4.87;;
12871;SDS011;6504;53.766;9.626;2023-07-30T05:18:22;6.30;;;5.07;;
12871;SDS011;6504;53.766;9.626;2023-07-30T05:20:51;7.57;;;5.97;;
12871;SDS011;6504;53.766;9.626;2023-07-30T05:23:20;6.67;;;4.80;;
12871;SDS011;6504;53.766;9.626;2023-07-30T05:25:48;6.50;;;4.90;;
12871;SDS011;6504;53.766;9.626;2023-07-30T05:28:17;8.53;;;5.43;;
12871;SDS011;6504;53.766;9.626;2023-07-30T05:30:45;6.40;;;4.87;;
12871;SDS011;6504;53.766;9.626;2023-07-30T05:33:13;9.67;;;5.07;;
12871;SDS011;6504;53.766;9.626;2023-07-30T05:35:41;6.70;;;5.20;;
12871;SDS011;6504;53.766;9.626;2023-07-30T05:38:09;8.30;;;5.17;;
12871;SDS011;6504;53.766;9.626;2023-07-30T05:40:39;7.83;;;5.77;;
12871;SDS011;6504;53.766;9.626;2023-07-30T05:43:08;10.00;;;6.03;;
12871;SDS011;6504;53.766;9.626;2023-07-30T05:45:36;7.90;;;5.40;;
12871;SDS011;6504;53.766;9.626;2023-07-30T05:48:05;8.50;;;5.73;;
12871;SDS011;6504;53.766;9.626;2023-07-30T05:50:33;6.97;;;5.37;;
12871;SDS011;6504;53.766;9.626;2023-07-30T05:53:01;8.23;;;5.67;;
12871;SDS011;6504;53.766;9.626;2023-07-30T05:55:29;9.60;;;5.67;;
12871;SDS011;6504;53.766;9.626;2023-07-30T05:57:58;8.40;;;5.90;;
12871;SDS011;6504;53.766;9.626;2023-07-30T06:00:27;8.37;;;5.40;;
12871;SDS011;6504;53.766;9.626;2023-07-30T06:02:55;8.67;;;5.80;;
12871;SDS011;6504;53.766;9.626;2023-07-30T06:05:23;7.63;;;5.03;;
12871;SDS011;6504;53.766;9.626;2023-07-30T06:07:51;9.93;;;6.27;;
12871;SDS011;6504;53.766;9.626;2023-07-30T06:10:19;10.37;;;6.00;;
12871;SDS011;6504;53.766;9.626;2023-07-30T06:12:47;8.93;;;5.87;;
12871;SDS011;6504;53.766;9.626;2023-07-30T06:15:17;12.53;;;6.97;;
12871;SDS011;6504;53.766;9.626;2023-07-30T06:17:45;12.03;;;6.70;;
12871;SDS011;6504;53.766;9.626;2023-07-30T06:20:13;8.90;;;6.40;;
12871;SDS011;6504;53.766;9.626;2023-07-30T06:22:41;8.53;;;6.50;;
12871;SDS011;6504;53.766;9.626;2023-07-30T06:25:09;10.20;;;7.13;;
12871;SDS011;6504;53.766;9.626;2023-07-30T06:27:37;12.70;;;7.77;;
12871;SDS011;6504;53.766;9.626;2023-07-30T06:30:06;11.20;;;6.47;;
12871;SDS011;6504;53.766;9.626;2023-07-30T06:32:36;14.23;;;7.80;;
12871;SDS011;6504;53.766;9.626;2023-07-30T06:35:05;12.10;;;6.73;;
12871;SDS011;6504;53.766;9.626;2023-07-30T06:37:33;15.73;;;7.70;;
12871;SDS011;6504;53.766;9.626;2023-07-30T06:40:02;12.60;;;6.30;;
12871;SDS011;6504;53.766;9.626;2023-07-30T06:42:32;11.30;;;7.70;;
12871;SDS011;6504;53.766;9.626;2023-07-30T06:45:01;13.00;;;7.00;;
12871;SDS011;6504;53.766;9.626;2023-07-30T06:47:29;11.20;;;7.30;;
12871;SDS011;6504;53.766;9.626;2023-07-30T06:50:00;11.33;;;7.30;;
12871;SDS011;6504;53.766;9.626;2023-07-30T06:52:29;13.50;;;7.27;;
12871;SDS011;6504;53.766;9.626;2023-07-30T06:54:57;11.07;;;6.87;;
12871;SDS011;6504;53.766;9.626;2023-07-30T06:57:25;14.53;;;7.23;;
12871;SDS011;6504;53.766;9.626;2023-07-30T06:59:53;11.07;;;6.33;;
12871;SDS011;6504;53.766;9.626;2023-07-30T07:02:21;12.70;;;7.63;;
12871;SDS011;6504;53.766;9.626;2023-07-30T07:04:49;15.33;;;7.50;;
12871;SDS011;6504;53.766;9.626;2023-07-30T07:07:20;12.47;;;7.60;;
12871;SDS011;6504;53.766;9.626;2023-07-30T07:09:48;11.23;;;7.03;;
12871;SDS011;6504;53.766;9.626;2023-07-30T07:12:16;12.33;;;7.83;;
12871;SDS011;6504;53.766;9.626;2023-07-30T07:14:45;13.90;;;7.13;;
12871;SDS011;6504;53.766;9.626;2023-07-30T07:17:13;15.07;;;8.00;;
12871;SDS011;6504;53.766;9.626;2023-07-30T07:19:41;14.90;;;7.50;;
12871;SDS011;6504;53.766;9.626;2023-07-30T07:22:10;14.00;;;7.23;;
12871;SDS011;6504;53.766;9.626;2023-07-30T07:24:39;12.90;;;7.07;;
12871;SDS011;6504;53.766;9.626;2023-07-30T07:27:07;13.87;;;7.73;;
12871;SDS011;6504;53.766;9.626;2023-07-30T07:29:35;15.13;;;7.07;;
12871;SDS011;6504;53.766;9.626;2023-07-30T07:32:04;15.33;;;7.43;;
12871;SDS011;6504;53.766;9.626;2023-07-30T07:34:33;11.83;;;7.20;;
12871;SDS011;6504;53.766;9.626;2023-07-30T07:37:01;15.13;;;7.80;;
12871;SDS011;6504;53.766;9.626;2023-07-30T07:39:29;14.83;;;7.10;;
12871;SDS011;6504;53.766;9.626;2023-07-30T07:41:58;15.33;;;7.33;;
12871;SDS011;6504;53.766;9.626;2023-07-30T07:44:26;14.80;;;7.60;;
12871;SDS011;6504;53.766;9.626;2023-07-30T07:46:54;12.47;;;6.40;;
12871;SDS011;6504;53.766;9.626;2023-07-30T07:49:24;15.40;;;6.97;;
12871;SDS011;6504;53.766;9.626;2023-07-30T07:51:52;11.63;;;6.37;;
12871;SDS011;6504;53.766;9.626;2023-07-30T07:54:20;17.27;;;6.63;;
12871;SDS011;6504;53.766;9.626;2023-07-30T07:56:48;14.47;;;6.47;;
12871;SDS011;6504;53.766;9.626;2023-07-30T07:59:17;12.40;;;5.93;;
12871;SDS011;6504;53.766;9.626;2023-07-30T08:01:45;16.17;;;6.80;;
12871;SDS011;6504;53.766;9.626;2023-07-30T08:04:13;14.37;;;6.47;;
12871;SDS011;6504;53.766;9.626;2023-07-30T08:06:42;15.23;;;7.03;;
12871;SDS011;6504;53.766;9.626;2023-07-30T08:09:10;12.57;;;5.73;;
12871;SDS011;6504;53.766;9.626;2023-07-30T08:11:38;12.77;;;5.97;;
12871;SDS011;6504;53.766;9.626;2023-07-30T08:14:06;13.77;;;6.37;;
12871;SDS011;6504;53.766;9.626;2023-07-30T08:16:35;15.07;;;6.90;;
12871;SDS011;6504;53.766;9.626;2023-07-30T08:19:04;14.80;;;6.37;;
12871;SDS011;6504;53.766;9.626;2023-07-30T08:21:32;15.67;;;6.23;;
12871;SDS011;6504;53.766;9.626;2023-07-30T08:24:00;14.67;;;6.23;;
12871;SDS011;6504;53.766;9.626;2023-07-30T08:26:28;12.73;;;5.53;;
12871;SDS011;6504;53.766;9.626;2023-07-30T08:28:56;16.67;;;6.17;;
12871;SDS011;6504;53.766;9.626;2023-07-30T08:31:24;13.07;;;6.07;;
12871;SDS011;6504;53.766;9.626;2023-07-30T08:33:54;13.80;;;6.17;;
12871;SDS011;6504;53.766;9.626;2023-07-30T08:36:22;10.70;;;5.63;;
12871;SDS011;6504;53.766;9.626;2023-07-30T08:38:50;13.67;;;6.00;;
12871;SDS011;6504;53.766;9.626;2023-07-30T08:41:18;12.80;;;5.77;;
12871;SDS011;6504;53.766;9.626;2023-07-30T08:43:46;10.67;;;5.63;;
12871;SDS011;6504;53.766;9.626;2023-07-30T08:46:16;11.43;;;6.03;;
12871;SDS011;6504;53.766;9.626;2023-07-30T08:48:44;14.33;;;5.83;;
12871;SDS011;6504;53.766;9.626;2023-07-30T08:51:17;15.57;;;5.70;;
12871;SDS011;6504;53.766;9.626;2023-07-30T08:53:48;10.77;;;5.70;;
12871;SDS011;6504;53.766;9.626;2023-07-30T08:56:16;12.30;;;4.77;;
12871;SDS011;6504;53.766;9.626;2023-07-30T08:58:44;10.80;;;5.10;;
12871;SDS011;6504;53.766;9.626;2023-07-30T09:01:15;10.83;;;5.17;;
12871;SDS011;6504;53.766;9.626;2023-07-30T09:03:45;14.70;;;5.50;;
12871;SDS011;6504;53.766;9.626;2023-07-30T09:06:17;14.33;;;5.33;;
12871;SDS011;6504;53.766;9.626;2023-07-30T09:08:45;12.83;;;5.03;;
12871;SDS011;6504;53.766;9.626;2023-07-30T09:11:13;10.70;;;4.87;;
12871;SDS011;6504;53.766;9.626;2023-07-30T09:13:41;10.93;;;5.40;;
12871;SDS011;6504;53.766;9.626;2023-07-30T09:16:10;11.33;;;4.97;;
12871;SDS011;6504;53.766;9.626;2023-07-30T09:18:40;12.53;;;5.97;;
12871;SDS011;6504;53.766;9.626;2023-07-30T09:21:09;14.07;;;5.53;;
12871;SDS011;6504;53.766;9.626;2023-07-30T09:23:43;11.57;;;6.10;;
12871;SDS011;6504;53.766;9.626;2023-07-30T09:26:13;14.80;;;6.47;;
12871;SDS011;6504;53.766;9.626;2023-07-30T09:28:41;10.10;;;6.30;;
12871;SDS011;6504;53.766;9.626;2023-07-30T09:31:09;11.67;;;7.20;;
12871;SDS011;6504;53.766;9.626;2023-07-30T09:33:57;10.13;;;5.97;;
12871;SDS011;6504;53.766;9.626;2023-07-30T09:36:26;11.87;;;6.90;;
12871;SDS011;6504;53.766;9.626;2023-07-30T09:38:55;12.27;;;6.00;;
12871;SDS011;6504;53.766;9.626;2023-07-30T09:41:23;12.17;;;6.17;;
12871;SDS011;6504;53.766;9.626;2023-07-30T09:43:57;11.37;;;5.40;;
12871;SDS011;6504;53.766;9.626;2023-07-30T09:46:28;11.40;;;5.53;;
12871;SDS011;6504;53.766;9.626;2023-07-30T09:48:57;10.53;;;5.10;;
12871;SDS011;6504;53.766;9.626;2023-07-30T09:51:25;11.60;;;5.93;;
12871;SDS011;6504;53.766;9.626;2023-07-30T09:53:55;12.43;;;5.33;;
12871;SDS011;6504;53.766;9.626;2023-07-30T09:56:24;8.70;;;5.13;;
12871;SDS011;6504;53.766;9.626;2023-07-30T09:58:52;13.90;;;5.37;;
12871;SDS011;6504;53.766;9.626;2023-07-30T10:01:20;12.70;;;5.83;;
12871;SDS011;6504;53.766;9.626;2023-07-30T10:03:52;14.30;;;5.33;;
12871;SDS011;6504;53.766;9.626;2023-07-30T10:06:23;9.83;;;5.03;;
12871;SDS011;6504;53.766;9.626;2023-07-30T10:08:53;10.03;;;4.67;;
12871;SDS011;6504;53.766;9.626;2023-07-30T10:11:26;11.00;;;4.70;;
12871;SDS011;6504;53.766;9.626;2023-07-30T10:13:55;10.23;;;4.10;;
12871;SDS011;6504;53.766;9.626;2023-07-30T10:16:27;9.67;;;4.63;;
12871;SDS011;6504;53.766;9.626;2023-07-30T10:18:56;9.30;;;3.80;;
12871;SDS011;6504;53.766;9.626;2023-07-30T10:21:26;9.20;;;3.77;;
12871;SDS011;6504;53.766;9.626;2023-07-30T10:24:01;9.87;;;3.97;;
12871;SDS011;6504;53.766;9.626;2023-07-30T10:26:31;9.93;;;3.50;;
12871;SDS011;6504;53.766;9.626;2023-07-30T10:29:13;6.10;;;2.70;;
12871;SDS011;6504;53.766;9.626;2023-07-30T10:31:42;7.40;;;2.93;;
12871;SDS011;6504;53.766;9.626;2023-07-30T10:34:14;7.23;;;2.80;;
12871;SDS011;6504;53.766;9.626;2023-07-30T10:36:44;6.90;;;3.10;;
12871;SDS011;6504;53.766;9.626;2023-07-30T10:39:16;7.93;;;2.80;;
12871;SDS011;6504;53.766;9.626;2023-07-30T10:41:45;8.90;;;2.80;;
12871;SDS011;6504;53.766;9.626;2023-07-30T10:44:23;6.93;;;2.83;;
12871;SDS011;6504;53.766;9.626;2023-07-30T10:46:53;7.63;;;2.73;;
12871;SDS011;6504;53.766;9.626;2023-07-30T10:49:22;6.20;;;2.77;;
12871;SDS011;6504;53.766;9.626;2023-07-30T10:51:51;6.63;;;2.47;;
12871;SDS011;6504;53.766;9.626;2023-07-30T10:54:21;6.73;;;2.83;;
12871;SDS011;6504;53.766;9.626;2023-07-30T10:56:49;5.43;;;2.30;;
12871;SDS011;6504;53.766;9.626;2023-07-30T10:59:18;5.90;;;2.50;;
12871;SDS011;6504;53.766;9.626;2023-07-30T11:01:47;4.63;;;2.20;;
12871;SDS011;6504;53.766;9.626;2023-07-30T11:04:15;6.40;;;2.93;;
12871;SDS011;6504;53.766;9.626;2023-07-30T11:06:45;7.83;;;2.80;;
12871;SDS011;6504;53.766;9.626;2023-07-30T11:09:18;6.17;;;2.80;;
12871;SDS011;6504;53.766;9.626;2023-07-30T11:11:49;7.33;;;2.40;;
12871;SDS011;6504;53.766;9.626;2023-07-30T11:14:19;7.33;;;2.63;;
12871;SDS011;6504;53.766;9.626;2023-07-30T11:16:49;6.47;;;2.37;;
12871;SDS011;6504;53.766;9.626;2023-07-30T11:19:18;5.30;;;2.50;;
12871;SDS011;6504;53.766;9.626;2023-07-30T11:21:47;6.93;;;2.50;;
12871;SDS011;6504;53.766;9.626;2023-07-30T11:24:19;6.37;;;2.80;;
12871;SDS011;6504;53.766;9.626;2023-07-30T11:26:57;9.10;;;3.00;;
12871;SDS011;6504;53.766;9.626;2023-07-30T11:29:26;7.97;;;2.73;;
12871;SDS011;6504;53.766;9.626;2023-07-30T11:31:56;5.63;;;2.73;;
12871;SDS011;6504;53.766;9.626;2023-07-30T11:34:25;7.23;;;2.60;;
12871;SDS011;6504;53.766;9.626;2023-07-30T11:36:54;6.00;;;2.53;;
12871;SDS011;6504;53.766;9.626;2023-07-30T11:39:23;6.30;;;2.60;;
12871;SDS011;6504;53.766;9.626;2023-07-30T11:41:52;9.40;;;2.90;;
12871;SDS011;6504;53.766;9.626;2023-07-30T11:44:31;6.63;;;2.67;;
12871;SDS011;6504;53.766;9.626;2023-07-30T11:47:01;6.23;;;2.60;;
12871;SDS011;6504;53.766;9.626;2023-07-30T11:49:31;5.70;;;2.30;;
12871;SDS011;6504;53.766;9.626;2023-07-30T11:52:05;5.20;;;2.47;;
12871;SDS011;6504;53.766;9.626;2023-07-30T11:54:35;6.77;;;2.50;;
12871;SDS011;6504;53.766;9.626;2023-07-30T11:57:03;5.37;;;2.90;;
12871;SDS011;6504;53.766;9.626;2023-07-30T11:59:33;5.73;;;2.77;;
12871;SDS011;6504;53.766;9.626;2023-07-30T12:02:02;4.67;;;2.77;;
12871;SDS011;6504;53.766;9.626;2023-07-30T12:04:41;7.23;;;3.10;;
12871;SDS011;6504;53.766;9.626;2023-07-30T12:07:21;6.00;;;2.47;;
12871;SDS011;6504;53.766;9.626;2023-07-30T12:09:50;7.17;;;2.73;;
12871;SDS011;6504;53.766;9.626;2023-07-30T12:12:18;7.37;;;2.80;;
12871;SDS011;6504;53.766;9.626;2023-07-30T12:14:53;5.87;;;2.70;;
12871;SDS011;6504;53.766;9.626;2023-07-30T12:17:22;7.90;;;2.90;;
12871;SDS011;6504;53.766;9.626;2023-07-30T12:19:50;7.47;;;2.90;;
12871;SDS011;6504;53.766;9.626;2023-07-30T12:22:18;6.87;;;2.90;;
12871;SDS011;6504;53.766;9.626;2023-07-30T12:24:46;7.33;;;2.87;;
12871;SDS011;6504;53.766;9.626;2023-07-30T12:27:14;6.10;;;3.00;;
12871;SDS011;6504;53.766;9.626;2023-07-30T12:29:42;8.57;;;3.07;;
12871;SDS011;6504;53.766;9.626;2023-07-30T12:32:11;6.63;;;2.63;;
12871;SDS011;6504;53.766;9.626;2023-07-30T12:34:40;6.60;;;3.13;;
12871;SDS011;6504;53.766;9.626;2023-07-30T12:37:08;6.37;;;2.70;;
12871;SDS011;6504;53.766;9.626;2023-07-30T12:39:36;7.50;;;2.83;;
12871;SDS011;6504;53.766;9.626;2023-07-30T12:42:04;7.00;;;2.77;;
12871;SDS011;6504;53.766;9.626;2023-07-30T12:44:32;6.57;;;2.93;;
12871;SDS011;6504;53.766;9.626;2023-07-30T12:47:00;5.00;;;2.60;;
12871;SDS011;6504;53.766;9.626;2023-07-30T12:49:30;7.83;;;2.90;;
12871;SDS011;6504;53.766;9.626;2023-07-30T12:51:58;8.23;;;3.23;;
12871;SDS011;6504;53.766;9.626;2023-07-30T12:54:26;7.13;;;2.57;;
12871;SDS011;6504;53.766;9.626;2023-07-30T12:56:54;7.50;;;3.03;;
12871;SDS011;6504;53.766;9.626;2023-07-30T12:59:22;4.80;;;2.00;;
12871;SDS011;6504;53.766;9.626;2023-07-30T13:01:50;3.23;;;2.30;;
12871;SDS011;6504;53.766;9.626;2023-07-30T13:04:18;4.83;;;2.03;;
12871;SDS011;6504;53.766;9.626;2023-07-30T13:06:49;4.17;;;2.07;;
12871;SDS011;6504;53.766;9.626;2023-07-30T13:09:17;3.17;;;1.83;;
12871;SDS011;6504;53.766;9.626;2023-07-30T13:11:45;4.17;;;1.90;;
12871;SDS011;6504;53.766;9.626;2023-07-30T13:14:13;3.47;;;1.80;;
12871;SDS011;6504;53.766;9.626;2023-07-30T13:16:41;4.13;;;1.70;;
12871;SDS011;6504;53.766;9.626;2023-07-30T13:19:09;3.23;;;1.67;;
12871;SDS011;6504;53.766;9.626;2023-07-30T13:21:37;4.30;;;1.97;;
12871;SDS011;6504;53.766;9.626;2023-07-30T13:24:07;3.17;;;1.70;;
12871;SDS011;6504;53.766;9.626;2023-07-30T13:26:35;2.67;;;1.60;;
12871;SDS011;6504;53.766;9.626;2023-07-30T13:29:05;2.43;;;1.40;;
12871;SDS011;6504;53.766;9.626;2023-07-30T13:31:33;2.90;;;1.80;;
12871;SDS011;6504;53.766;9.626;2023-07-30T13:34:01;4.27;;;1.93;;
12871;SDS011;6504;53.766;9.626;2023-07-30T13:36:29;4.03;;;1.50;;
12871;SDS011;6504;53.766;9.626;2023-07-30T13:38:57;4.67;;;1.67;;
12871;SDS011;6504;53.766;9.626;2023-07-30T13:41:26;3.13;;;1.57;;
12871;SDS011;6504;53.766;9.626;2023-07-30T13:43:54;3.50;;;2.03;;
12871;SDS011;6504;53.766;9.626;2023-07-30T13:46:22;3.03;;;1.70;;
12871;SDS011;6504;53.766;9.626;2023-07-30T13:48:51;2.77;;;1.70;;
12871;SDS011;6504;53.766;9.626;2023-07-30T13:51:19;4.57;;;1.90;;
12871;SDS011;6504;53.766;9.626;2023-07-30T13:53:47;3.50;;;1.70;;
12871;SDS011;6504;53.766;9.626;2023-07-30T13:56:15;3.60;;;1.60;;
12871;SDS011;6504;53.766;9.626;2023-07-30T13:58:44;3.50;;;1.87;;
12871;SDS011;6504;53.766;9.626;2023-07-30T14:01:12;3.10;;;1.70;;
12871;SDS011;6504;53.766;9.626;2023-07-30T14:03:43;2.80;;;1.53;;
12871;SDS011;6504;53.766;9.626;2023-07-30T14:06:11;3.17;;;1.60;;
12871;SDS011;6504;53.766;9.626;2023-07-30T14:08:39;2.40;;;1.73;;
12871;SDS011;6504;53.766;9.626;2023-07-30T14:11:07;3.27;;;1.73;;
12871;SDS011;6504;53.766;9.626;2023-07-30T14:13:36;2.37;;;1.50;;
12871;SDS011;6504;53.766;9.626;2023-07-30T14:16:05;4.20;;;1.80;;
12871;SDS011;6504;53.766;9.626;2023-07-30T14:18:33;4.93;;;1.80;;
12871;SDS011;6504;53.766;9.626;2023-07-30T14:21:01;3.13;;;1.77;;
12871;SDS011;6504;53.766;9.626;2023-07-30T14:23:30;3.00;;;1.43;;
12871;SDS011;6504;53.766;9.626;2023-07-30T14:25:58;2.97;;;1.63;;
12871;SDS011;6504;53.766;9.626;2023-07-30T14:28:26;3.63;;;1.77;;
12871;SDS011;6504;53.766;9.626;2023-07-30T14:30:54;2.20;;;1.50;;
12871;SDS011;6504;53.766;9.626;2023-07-30T14:33:23;4.23;;;1.87;;
12871;SDS011;6504;53.766;9.626;2023-07-30T14:35:52;4.47;;;1.60;;
12871;SDS011;6504;53.766;9.626;2023-07-30T14:38:20;4.30;;;1.80;;
12871;SDS011;6504;53.766;9.626;2023-07-30T14:40:48;3.27;;;1.50;;
12871;SDS011;6504;53.766;9.626;2023-07-30T14:43:16;2.80;;;1.57;;
12871;SDS011;6504;53.766;9.626;2023-07-30T14:45:45;5.10;;;1.77;;
12871;SDS011;6504;53.766;9.626;2023-07-30T14:48:13;3.93;;;1.70;;
12871;SDS011;6504;53.766;9.626;2023-07-30T14:50:42;4.83;;;1.67;;
12871;SDS011;6504;53.766;9.626;2023-07-30T14:53:10;3.30;;;1.50;;
12871;SDS011;6504;53.766;9.626;2023-07-30T14:55:39;3.20;;;1.70;;
12871;SDS011;6504;53.766;9.626;2023-07-30T14:58:07;3.30;;;1.27;;
12871;SDS011;6504;53.766;9.626;2023-07-30T15:00:35;3.50;;;1.40;;
12871;SDS011;6504;53.766;9.626;2023-07-30T15:03:03;4.27;;;1.80;;
12871;SDS011;6504;53.766;9.626;2023-07-30T15:05:32;4.13;;;1.70;;
12871;SDS011;6504;53.766;9.626;2023-07-30T15:08:02;4.27;;;1.93;;